sensor_id;sensor_type;location;lat;lon;timestamp;temperature;humidity
15048;DHT22;7621;52.350;13.308;2022-11-20T08:02:52;1.80;99.90
15048;DHT22;7621;52.350;13.308;2022-11-20T08:05:18;1.80;99.90
15048;DHT22;7621;52.350;13.308;2022-11-20T08:07:43;1.80;99.90
15048;DHT22;7621;52.350;13.308;2022-11-20T08:10:12;1.80;99.90
15048;DHT22;7621;52.350;13.308;2022-11-20T08:12:48;1.80;99.90
15048;DHT22;7621;52.350;13.308;2022-11-20T08:15:33;1.80;99.90
15048;DHT22;7621;52.350;13.308;2022-11-20T08:18:08;1.80;99.90
15048;DHT22;7621;52.350;13.308;2022-11-20T08:20:34;1.80;99.90
15048;DHT22;7621;52.350;13.308;2022-11-20T08:23:07;1.80;99.90
15048;DHT22;7621;52.350;13.308;2022-11-20T08:25:34;1.80;99.90
15048;DHT22;7621;52.350;13.308;2022-11-20T08:28:03;1.80;99.90
15048;DHT22;7621;52.350;13.308;2022-11-20T08:30:29;1.80;99.90
15048;DHT22;7621;52.350;13.308;2022-11-20T08:33:01;1.80;99.90
15048;DHT22;7621;52.350;13.308;2022-11-20T08:35:27;1.80;99.90
15048;DHT22;7621;52.350;13.308;2022-11-20T08:37:52;1.80;99.90
15048;DHT22;7621;52.350;13.308;2022-11-20T08:40:18;1.80;99.90
15048;DHT22;7621;52.350;13.308;2022-11-20T08:42:50;1.70;99.90
15048;DHT22;7621;52.350;13.308;2022-11-20T08:45:17;1.70;99.90
15048;DHT22;7621;52.350;13.308;2022-11-20T08:47:44;1.70;99.90
15048;DHT22;7621;52.350;13.308;2022-11-20T08:50:12;1.70;99.90
15048;DHT22;7621;52.350;13.308;2022-11-20T08:52:38;1.80;99.90
15048;DHT22;7621;52.350;13.308;2022-11-20T08:55:04;1.80;99.90
15048;DHT22;7621;52.350;13.308;2022-11-20T08:57:34;1.80;99.90
15048;DHT22;7621;52.350;13.308;2022-11-20T09:00:00;1.90;99.90
15048;DHT22;7621;52.350;13.308;2022-11-20T09:02:26;1.90;99.90
15048;DHT22;7621;52.350;13.308;2022-11-20T09:04:51;1.90;99.90
15048;DHT22;7621;52.350;13.308;2022-11-20T09:07:18;1.90;99.90
15048;DHT22;7621;52.350;13.308;2022-11-20T09:09:44;1.80;99.90
15048;DHT22;7621;52.350;13.308;2022-11-20T09:12:10;1.80;99.90
15048;DHT22;7621;52.350;13.308;2022-11-20T09:14:35;1.80;99.90
15048;DHT22;7621;52.350;13.308;2022-11-20T09:17:01;1.90;99.90
15048;DHT22;7621;52.350;13.308;2022-11-20T09:19:26;1.90;99.90
15048;DHT22;7621;52.350;13.308;2022-11-20T09:21:52;1.90;99.90
15048;DHT22;7621;52.350;13.308;2022-11-20T09:24:18;1.90;99.90
15048;DHT22;7621;52.350;13.308;2022-11-20T09:26:44;1.90;99.90
15048;DHT22;7621;52.350;13.308;2022-11-20T09:29:10;1.90;99.90
15048;DHT22;7621;52.350;13.308;2022-11-20T09:31:36;2.00;99.90
15048;DHT22;7621;52.350;13.308;2022-11-20T09:34:01;2.00;99.90
15048;DHT22;7621;52.350;13.308;2022-11-20T09:36:27;2.10;99.90
15048;DHT22;7621;52.350;13.308;2022-11-20T09:38:52;2.10;99.90
15048;DHT22;7621;52.350;13.308;2022-11-20T09:41:36;2.10;99.90
15048;DHT22;7621;52.350;13.308;2022-11-20T09:45:25;2.20;99.90
15048;DHT22;7621;52.350;13.308;2022-11-20T09:50:32;2.10;99.90
15048;DHT22;7621;52.350;13.308;2022-11-20T09:55:45;2.20;99.90
15048;DHT22;7621;52.350;13.308;2022-11-20T09:58:35;2.20;99.90
15048;DHT22;7621;52.350;13.308;2022-11-20T10:01:13;2.20;99.90
15048;DHT22;7621;52.350;13.308;2022-11-20T10:03:46;2.30;99.90
15048;DHT22;7621;52.350;13.308;2022-11-20T10:06:18;2.40;99.90
15048;DHT22;7621;52.350;13.308;2022-11-20T10:08:50;2.40;99.90
15048;DHT22;7621;52.350;13.308;2022-11-20T10:11:35;2.40;99.90
15048;DHT22;7621;52.350;13.308;2022-11-20T10:14:17;2.50;99.90
15048;DHT22;7621;52.350;13.308;2022-11-20T10:17:17;2.50;99.90
15048;DHT22;7621;52.350;13.308;2022-11-20T10:25:24;2.60;99.90
15048;DHT22;7621;52.350;13.308;2022-11-20T10:28:15;2.70;99.90
15048;DHT22;7621;52.350;13.308;2022-11-20T10:30:44;2.70;99.90
15048;DHT22;7621;52.350;13.308;2022-11-20T10:33:19;2.70;99.90
15048;DHT22;7621;52.350;13.308;2022-11-20T10:36:15;2.80;99.90
15048;DHT22;7621;52.350;13.308;2022-11-20T10:38:52;2.80;99.90
15048;DHT22;7621;52.350;13.308;2022-11-20T10:41:24;2.90;99.90
15048;DHT22;7621;52.350;13.308;2022-11-20T10:44:03;2.90;99.90
15048;DHT22;7621;52.350;13.308;2022-11-20T10:46:37;2.90;99.90
15048;DHT22;7621;52.350;13.308;2022-11-20T10:49:10;2.90;99.90
15048;DHT22;7621;52.350;13.308;2022-11-20T10:51:52;3.00;99.90
15048;DHT22;7621;52.350;13.308;2022-11-20T10:57:10;3.00;99.90
15048;DHT22;7621;52.350;13.308;2022-11-20T11:00:11;3.10;99.90
15048;DHT22;7621;52.350;13.308;2022-11-20T11:02:48;3.10;99.90
15048;DHT22;7621;52.350;13.308;2022-11-20T11:07:47;3.00;99.90
15048;DHT22;7621;52.350;13.308;2022-11-20T11:12:54;3.00;99.90
15048;DHT22;7621;52.350;13.308;2022-11-20T11:15:40;3.00;99.90
15048;DHT22;7621;52.350;13.308;2022-11-20T11:18:22;3.10;99.90
15048;DHT22;7621;52.350;13.308;2022-11-20T11:20:50;3.20;99.90
15048;DHT22;7621;52.350;13.308;2022-11-20T11:23:33;3.20;99.90
15048;DHT22;7621;52.350;13.308;2022-11-20T11:26:01;3.20;99.80
15048;DHT22;7621;52.350;13.308;2022-11-20T11:28:27;3.30;99.60
15048;DHT22;7621;52.350;13.308;2022-11-20T11:30:54;3.30;99.50
15048;DHT22;7621;52.350;13.308;2022-11-20T11:33:22;3.40;99.60
15048;DHT22;7621;52.350;13.308;2022-11-20T11:35:50;3.40;99.70
15048;DHT22;7621;52.350;13.308;2022-11-20T11:38:22;3.60;99.50
15048;DHT22;7621;52.350;13.308;2022-11-20T11:40:53;3.70;99.30
15048;DHT22;7621;52.350;13.308;2022-11-20T11:43:22;3.90;99.00
15048;DHT22;7621;52.350;13.308;2022-11-20T11:46:25;4.00;98.80
15048;DHT22;7621;52.350;13.308;2022-11-20T11:49:17;4.20;98.50
15048;DHT22;7621;52.350;13.308;2022-11-20T11:54:42;4.70;98.40
15048;DHT22;7621;52.350;13.308;2022-11-20T12:00:13;4.90;97.70
15048;DHT22;7621;52.350;13.308;2022-11-20T12:05:24;4.90;97.40
15048;DHT22;7621;52.350;13.308;2022-11-20T12:08:05;4.90;97.00
15048;DHT22;7621;52.350;13.308;2022-11-20T12:10:52;4.80;96.80
15048;DHT22;7621;52.350;13.308;2022-11-20T12:16:02;4.50;96.80
15048;DHT22;7621;52.350;13.308;2022-11-20T12:18:28;4.50;97.10
15048;DHT22;7621;52.350;13.308;2022-11-20T12:24:22;4.30;97.40
15048;DHT22;7621;52.350;13.308;2022-11-20T12:27:09;4.30;97.60
15048;DHT22;7621;52.350;13.308;2022-11-20T12:29:49;4.20;97.80
15048;DHT22;7621;52.350;13.308;2022-11-20T12:32:59;4.10;98.00
15048;DHT22;7621;52.350;13.308;2022-11-20T12:44:20;4.00;99.30
15048;DHT22;7621;52.350;13.308;2022-11-20T12:49:47;3.90;99.80
15048;DHT22;7621;52.350;13.308;2022-11-20T12:52:52;3.90;99.90
15048;DHT22;7621;52.350;13.308;2022-11-20T12:58:17;3.80;99.90
15048;DHT22;7621;52.350;13.308;2022-11-20T13:04:13;3.70;99.90
15048;DHT22;7621;52.350;13.308;2022-11-20T13:06:43;3.70;99.90
15048;DHT22;7621;52.350;13.308;2022-11-20T13:09:12;3.80;99.90
15048;DHT22;7621;52.350;13.308;2022-11-20T13:14:41;3.80;99.90
15048;DHT22;7621;52.350;13.308;2022-11-20T13:17:14;3.90;99.90
15048;DHT22;7621;52.350;13.308;2022-11-20T13:19:52;3.90;99.90
15048;DHT22;7621;52.350;13.308;2022-11-20T13:22:26;3.90;99.90
15048;DHT22;7621;52.350;13.308;2022-11-20T13:24:52;3.90;99.90
15048;DHT22;7621;52.350;13.308;2022-11-20T13:27:20;3.90;99.90
15048;DHT22;7621;52.350;13.308;2022-11-20T13:29:58;3.90;99.90
15048;DHT22;7621;52.350;13.308;2022-11-20T13:32:26;3.80;99.90
15048;DHT22;7621;52.350;13.308;2022-11-20T13:35:00;3.80;99.90
15048;DHT22;7621;52.350;13.308;2022-11-20T13:37:32;3.80;99.90
15048;DHT22;7621;52.350;13.308;2022-11-20T13:42:43;3.70;99.90
15048;DHT22;7621;52.350;13.308;2022-11-20T13:45:21;3.70;99.90
15048;DHT22;7621;52.350;13.308;2022-11-20T13:47:49;3.60;99.90
15048;DHT22;7621;52.350;13.308;2022-11-20T13:50:15;3.60;99.90
15048;DHT22;7621;52.350;13.308;2022-11-20T13:52:50;3.60;99.90
15048;DHT22;7621;52.350;13.308;2022-11-20T13:55:23;3.50;99.90
15048;DHT22;7621;52.350;13.308;2022-11-20T14:01:15;3.40;99.90
15048;DHT22;7621;52.350;13.308;2022-11-20T14:03:42;3.40;99.90
15048;DHT22;7621;52.350;13.308;2022-11-20T14:06:25;3.30;99.90
15048;DHT22;7621;52.350;13.308;2022-11-20T14:08:52;3.30;99.90
15048;DHT22;7621;52.350;13.308;2022-11-20T14:11:20;3.20;99.90
15048;DHT22;7621;52.350;13.308;2022-11-20T14:14:01;3.10;99.90
15048;DHT22;7621;52.350;13.308;2022-11-20T14:16:33;3.10;99.90
15048;DHT22;7621;52.350;13.308;2022-11-20T14:21:45;3.10;99.90
15048;DHT22;7621;52.350;13.308;2022-11-20T14:24:13;3.10;99.90
15048;DHT22;7621;52.350;13.308;2022-11-20T14:26:43;3.00;99.90
15048;DHT22;7621;52.350;13.308;2022-11-20T14:29:17;3.10;99.90
15048;DHT22;7621;52.350;13.308;2022-11-20T14:31:48;3.10;99.90
15048;DHT22;7621;52.350;13.308;2022-11-20T14:34:21;3.10;99.90
15048;DHT22;7621;52.350;13.308;2022-11-20T14:36:47;3.10;99.90
15048;DHT22;7621;52.350;13.308;2022-11-20T14:39:34;3.10;99.90
15048;DHT22;7621;52.350;13.308;2022-11-20T14:42:00;3.10;99.90
15048;DHT22;7621;52.350;13.308;2022-11-20T14:44:33;3.10;99.90
15048;DHT22;7621;52.350;13.308;2022-11-20T14:47:01;3.10;99.90
15048;DHT22;7621;52.350;13.308;2022-11-20T14:49:30;3.10;99.90
15048;DHT22;7621;52.350;13.308;2022-11-20T14:52:00;3.10;99.90
15048;DHT22;7621;52.350;13.308;2022-11-20T14:54:26;3.10;99.90
15048;DHT22;7621;52.350;13.308;2022-11-20T14:56:59;3.00;99.90
15048;DHT22;7621;52.350;13.308;2022-11-20T14:59:27;3.00;99.90
15048;DHT22;7621;52.350;13.308;2022-11-20T15:02:04;2.90;99.90
15048;DHT22;7621;52.350;13.308;2022-11-20T15:04:30;2.80;99.90
15048;DHT22;7621;52.350;13.308;2022-11-20T15:06:57;2.70;99.90
15048;DHT22;7621;52.350;13.308;2022-11-20T15:09:23;2.70;99.90
15048;DHT22;7621;52.350;13.308;2022-11-20T15:11:57;2.60;99.90
15048;DHT22;7621;52.350;13.308;2022-11-20T15:14:23;2.60;99.90
15048;DHT22;7621;52.350;13.308;2022-11-20T15:16:50;2.60;99.90
15048;DHT22;7621;52.350;13.308;2022-11-20T15:19:22;2.60;99.90
15048;DHT22;7621;52.350;13.308;2022-11-20T15:21:48;2.60;99.90
15048;DHT22;7621;52.350;13.308;2022-11-20T15:24:15;2.60;99.90
15048;DHT22;7621;52.350;13.308;2022-11-20T15:26:41;2.70;99.90
15048;DHT22;7621;52.350;13.308;2022-11-20T15:29:11;2.70;99.90
15048;DHT22;7621;52.350;13.308;2022-11-20T15:31:38;2.70;99.90
15048;DHT22;7621;52.350;13.308;2022-11-20T15:34:11;2.70;99.90
15048;DHT22;7621;52.350;13.308;2022-11-20T15:36:38;2.70;99.90
15048;DHT22;7621;52.350;13.308;2022-11-20T15:39:03;2.70;99.90
15048;DHT22;7621;52.350;13.308;2022-11-20T15:41:29;2.70;99.90
15048;DHT22;7621;52.350;13.308;2022-11-20T15:43:55;2.70;99.90
15048;DHT22;7621;52.350;13.308;2022-11-20T15:46:26;2.70;99.90
15048;DHT22;7621;52.350;13.308;2022-11-20T15:48:57;2.70;99.90
15048;DHT22;7621;52.350;13.308;2022-11-20T15:53:52;2.70;99.90
15048;DHT22;7621;52.350;13.308;2022-11-20T15:56:19;2.70;99.90
15048;DHT22;7621;52.350;13.308;2022-11-20T15:58:44;2.80;99.90
15048;DHT22;7621;52.350;13.308;2022-11-20T16:01:15;2.70;99.90
15048;DHT22;7621;52.350;13.308;2022-11-20T16:03:41;2.80;99.90
15048;DHT22;7621;52.350;13.308;2022-11-20T16:06:07;2.80;99.90
15048;DHT22;7621;52.350;13.308;2022-11-20T16:08:33;2.80;99.90
15048;DHT22;7621;52.350;13.308;2022-11-20T16:10:59;2.80;99.90
15048;DHT22;7621;52.350;13.308;2022-11-20T16:13:24;2.80;99.90
15048;DHT22;7621;52.350;13.308;2022-11-20T16:16:23;2.80;99.90
15048;DHT22;7621;52.350;13.308;2022-11-20T16:18:51;2.80;99.90
15048;DHT22;7621;52.350;13.308;2022-11-20T16:21:16;2.80;99.90
15048;DHT22;7621;52.350;13.308;2022-11-20T16:23:42;2.80;99.90
15048;DHT22;7621;52.350;13.308;2022-11-20T16:26:13;2.80;99.90
15048;DHT22;7621;52.350;13.308;2022-11-20T16:28:39;2.80;99.90
15048;DHT22;7621;52.350;13.308;2022-11-20T16:31:16;2.80;99.90
15048;DHT22;7621;52.350;13.308;2022-11-20T16:33:42;2.80;99.90
15048;DHT22;7621;52.350;13.308;2022-11-20T16:36:10;2.80;99.90
15048;DHT22;7621;52.350;13.308;2022-11-20T16:38:36;2.80;99.90
15048;DHT22;7621;52.350;13.308;2022-11-20T16:41:03;2.80;99.90
15048;DHT22;7621;52.350;13.308;2022-11-20T16:43:28;2.80;99.90
15048;DHT22;7621;52.350;13.308;2022-11-20T16:45:54;2.80;99.90
15048;DHT22;7621;52.350;13.308;2022-11-20T16:48:19;2.70;99.90
15048;DHT22;7621;52.350;13.308;2022-11-20T16:50:50;2.60;99.90
15048;DHT22;7621;52.350;13.308;2022-11-20T16:53:17;2.50;99.90
15048;DHT22;7621;52.350;13.308;2022-11-20T16:55:43;2.50;99.90
15048;DHT22;7621;52.350;13.308;2022-11-20T16:58:08;2.30;99.90
15048;DHT22;7621;52.350;13.308;2022-11-20T17:00:38;2.30;99.90
15048;DHT22;7621;52.350;13.308;2022-11-20T17:03:05;2.10;99.90
15048;DHT22;7621;52.350;13.308;2022-11-20T17:05:31;2.10;99.90
15048;DHT22;7621;52.350;13.308;2022-11-20T17:07:58;2.00;99.90
15048;DHT22;7621;52.350;13.308;2022-11-20T17:10:23;2.10;99.90
15048;DHT22;7621;52.350;13.308;2022-11-20T17:12:49;2.10;99.90
15048;DHT22;7621;52.350;13.308;2022-11-20T17:15:14;2.10;99.90
15048;DHT22;7621;52.350;13.308;2022-11-20T17:17:40;2.10;99.90
15048;DHT22;7621;52.350;13.308;2022-11-20T17:20:06;2.00;99.90
15048;DHT22;7621;52.350;13.308;2022-11-20T17:22:31;2.00;99.90
15048;DHT22;7621;52.350;13.308;2022-11-20T17:24:57;2.00;99.90
15048;DHT22;7621;52.350;13.308;2022-11-20T17:27:22;2.00;99.90
15048;DHT22;7621;52.350;13.308;2022-11-20T17:29:48;2.00;99.90
15048;DHT22;7621;52.350;13.308;2022-11-20T17:32:14;2.10;99.90
15048;DHT22;7621;52.350;13.308;2022-11-20T17:34:39;2.00;99.90
15048;DHT22;7621;52.350;13.308;2022-11-20T17:37:05;2.00;99.90
15048;DHT22;7621;52.350;13.308;2022-11-20T17:39:31;2.00;99.90
15048;DHT22;7621;52.350;13.308;2022-11-20T17:41:56;1.90;99.90
15048;DHT22;7621;52.350;13.308;2022-11-20T17:44:40;1.80;99.90
15048;DHT22;7621;52.350;13.308;2022-11-20T17:47:07;1.80;99.90
15048;DHT22;7621;52.350;13.308;2022-11-20T17:49:33;1.70;99.90
15048;DHT22;7621;52.350;13.308;2022-11-20T17:51:58;1.60;99.90
15048;DHT22;7621;52.350;13.308;2022-11-20T17:54:24;1.60;99.90
15048;DHT22;7621;52.350;13.308;2022-11-20T17:56:49;1.50;99.90
15048;DHT22;7621;52.350;13.308;2022-11-20T17:59:33;1.40;99.90
15048;DHT22;7621;52.350;13.308;2022-11-20T18:01:59;1.40;99.90
15048;DHT22;7621;52.350;13.308;2022-11-20T18:04:25;1.30;99.90
15048;DHT22;7621;52.350;13.308;2022-11-20T18:06:50;1.30;99.90
15048;DHT22;7621;52.350;13.308;2022-11-20T18:09:16;1.30;99.90
15048;DHT22;7621;52.350;13.308;2022-11-20T18:11:42;1.20;99.90
15048;DHT22;7621;52.350;13.308;2022-11-20T18:14:12;1.20;99.90
15048;DHT22;7621;52.350;13.308;2022-11-20T18:16:59;1.10;99.90
15048;DHT22;7621;52.350;13.308;2022-11-20T18:19:27;1.10;99.90
15048;DHT22;7621;52.350;13.308;2022-11-20T18:21:53;1.10;99.90
15048;DHT22;7621;52.350;13.308;2022-11-20T18:24:19;1.00;99.90
15048;DHT22;7621;52.350;13.308;2022-11-20T18:26:46;1.00;99.90
15048;DHT22;7621;52.350;13.308;2022-11-20T18:29:12;1.00;99.90
15048;DHT22;7621;52.350;13.308;2022-11-20T18:31:38;0.90;99.90
15048;DHT22;7621;52.350;13.308;2022-11-20T18:34:03;0.90;99.90
15048;DHT22;7621;52.350;13.308;2022-11-20T18:36:30;0.90;99.90
15048;DHT22;7621;52.350;13.308;2022-11-20T18:38:58;0.80;99.90
15048;DHT22;7621;52.350;13.308;2022-11-20T18:41:26;0.80;99.90
15048;DHT22;7621;52.350;13.308;2022-11-20T18:44:21;0.70;99.90
15048;DHT22;7621;52.350;13.308;2022-11-20T18:47:09;0.70;99.90
15048;DHT22;7621;52.350;13.308;2022-11-20T18:49:35;0.70;99.90
15048;DHT22;7621;52.350;13.308;2022-11-20T18:52:01;0.70;99.90
15048;DHT22;7621;52.350;13.308;2022-11-20T18:54:26;0.60;99.90
15048;DHT22;7621;52.350;13.308;2022-11-20T18:56:52;0.60;99.90
15048;DHT22;7621;52.350;13.308;2022-11-20T18:59:19;0.60;99.90
15048;DHT22;7621;52.350;13.308;2022-11-20T19:01:45;0.60;99.90
15048;DHT22;7621;52.350;13.308;2022-11-20T19:04:13;0.60;99.90
15048;DHT22;7621;52.350;13.308;2022-11-20T19:06:41;0.50;99.90
15048;DHT22;7621;52.350;13.308;2022-11-20T19:09:08;0.50;99.90
15048;DHT22;7621;52.350;13.308;2022-11-20T19:11:35;0.50;99.90
15048;DHT22;7621;52.350;13.308;2022-11-20T19:14:01;0.40;99.90
15048;DHT22;7621;52.350;13.308;2022-11-20T19:16:27;0.40;99.90
15048;DHT22;7621;52.350;13.308;2022-11-20T19:18:53;0.40;99.90
15048;DHT22;7621;52.350;13.308;2022-11-20T19:21:23;0.30;99.90
15048;DHT22;7621;52.350;13.308;2022-11-20T19:23:49;0.30;99.90
15048;DHT22;7621;52.350;13.308;2022-11-20T19:26:16;0.40;99.90
15048;DHT22;7621;52.350;13.308;2022-11-20T19:28:42;0.40;99.90
15048;DHT22;7621;52.350;13.308;2022-11-20T19:31:14;0.40;99.90
15048;DHT22;7621;52.350;13.308;2022-11-20T19:33:40;0.40;99.90
15048;DHT22;7621;52.350;13.308;2022-11-20T19:38:43;0.30;99.90
15048;DHT22;7621;52.350;13.308;2022-11-20T19:41:11;0.30;99.90
15048;DHT22;7621;52.350;13.308;2022-11-20T19:43:36;0.20;99.90
15048;DHT22;7621;52.350;13.308;2022-11-20T19:46:02;0.20;99.90
15048;DHT22;7621;52.350;13.308;2022-11-20T19:48:33;0.20;99.90
15048;DHT22;7621;52.350;13.308;2022-11-20T19:51:08;0.10;99.90
15048;DHT22;7621;52.350;13.308;2022-11-20T19:53:34;0.10;99.90
15048;DHT22;7621;52.350;13.308;2022-11-20T19:56:00;0.00;99.90
15048;DHT22;7621;52.350;13.308;2022-11-20T19:58:29;0.00;99.90
15048;DHT22;7621;52.350;13.308;2022-11-20T20:00:55;-0.10;99.90
15048;DHT22;7621;52.350;13.308;2022-11-20T20:03:21;-0.10;99.90
15048;DHT22;7621;52.350;13.308;2022-11-20T20:05:47;-0.20;99.90
15048;DHT22;7621;52.350;13.308;2022-11-20T20:08:13;-0.20;99.90
15048;DHT22;7621;52.350;13.308;2022-11-20T20:10:39;-0.20;99.90
15048;DHT22;7621;52.350;13.308;2022-11-20T20:13:05;-0.20;99.90
15048;DHT22;7621;52.350;13.308;2022-11-20T20:15:30;-0.20;99.90
15048;DHT22;7621;52.350;13.308;2022-11-20T20:17:56;-0.20;99.90
15048;DHT22;7621;52.350;13.308;2022-11-20T20:20:22;-0.20;99.90
15048;DHT22;7621;52.350;13.308;2022-11-20T20:22:48;-0.20;99.90
15048;DHT22;7621;52.350;13.308;2022-11-20T20:25:14;-0.20;99.90
15048;DHT22;7621;52.350;13.308;2022-11-20T20:27:40;-0.20;99.90
15048;DHT22;7621;52.350;13.308;2022-11-20T20:30:07;-0.20;99.90
15048;DHT22;7621;52.350;13.308;2022-11-20T20:32:36;-0.30;99.90
15048;DHT22;7621;52.350;13.308;2022-11-20T20:35:06;-0.30;99.90
15048;DHT22;7621;52.350;13.308;2022-11-20T20:37:32;-0.30;99.90
15048;DHT22;7621;52.350;13.308;2022-11-20T20:39:58;-0.40;99.90
15048;DHT22;7621;52.350;13.308;2022-11-20T20:42:23;-0.50;99.90
15048;DHT22;7621;52.350;13.308;2022-11-20T20:44:49;-0.50;99.90
15048;DHT22;7621;52.350;13.308;2022-11-20T20:47:39;-0.50;99.90
15048;DHT22;7621;52.350;13.308;2022-11-20T20:50:08;-0.60;99.90
15048;DHT22;7621;52.350;13.308;2022-11-20T20:52:34;-0.70;99.90
15048;DHT22;7621;52.350;13.308;2022-11-20T20:55:00;-0.70;99.90
15048;DHT22;7621;52.350;13.308;2022-11-20T20:57:26;-0.70;99.90
15048;DHT22;7621;52.350;13.308;2022-11-20T20:59:53;-0.70;99.90
15048;DHT22;7621;52.350;13.308;2022-11-20T21:02:23;-0.70;99.90
15048;DHT22;7621;52.350;13.308;2022-11-20T21:04:49;-0.70;99.90
15048;DHT22;7621;52.350;13.308;2022-11-20T21:07:16;-0.70;99.90
15048;DHT22;7621;52.350;13.308;2022-11-20T21:09:42;-0.70;99.90
15048;DHT22;7621;52.350;13.308;2022-11-20T21:12:08;-0.80;99.90
15048;DHT22;7621;52.350;13.308;2022-11-20T21:14:34;-0.80;99.90
15048;DHT22;7621;52.350;13.308;2022-11-20T21:17:00;-0.80;99.90
15048;DHT22;7621;52.350;13.308;2022-11-20T21:19:26;-0.90;99.90
15048;DHT22;7621;52.350;13.308;2022-11-20T21:21:52;-0.90;99.90
15048;DHT22;7621;52.350;13.308;2022-11-20T21:24:28;-0.90;99.90
15048;DHT22;7621;52.350;13.308;2022-11-20T21:26:55;-0.90;99.90
15048;DHT22;7621;52.350;13.308;2022-11-20T21:29:22;-1.00;99.90
15048;DHT22;7621;52.350;13.308;2022-11-20T21:31:49;-1.00;99.90
15048;DHT22;7621;52.350;13.308;2022-11-20T21:34:15;-1.10;99.90
15048;DHT22;7621;52.350;13.308;2022-11-20T21:36:41;-1.10;99.90
15048;DHT22;7621;52.350;13.308;2022-11-20T21:39:09;-1.10;99.90
15048;DHT22;7621;52.350;13.308;2022-11-20T21:41:35;-1.20;99.90
15048;DHT22;7621;52.350;13.308;2022-11-20T21:44:02;-1.20;99.90
15048;DHT22;7621;52.350;13.308;2022-11-20T21:46:29;-1.20;99.90
15048;DHT22;7621;52.350;13.308;2022-11-20T21:48:55;-1.20;99.90
15048;DHT22;7621;52.350;13.308;2022-11-20T21:51:23;-1.30;99.90
15048;DHT22;7621;52.350;13.308;2022-11-20T21:53:50;-1.30;99.90
15048;DHT22;7621;52.350;13.308;2022-11-20T21:56:18;-1.30;99.90
15048;DHT22;7621;52.350;13.308;2022-11-20T21:58:44;-1.30;99.90
15048;DHT22;7621;52.350;13.308;2022-11-20T22:01:16;-1.40;99.90
15048;DHT22;7621;52.350;13.308;2022-11-20T22:03:42;-1.40;99.90
15048;DHT22;7621;52.350;13.308;2022-11-20T22:06:08;-1.40;99.90
15048;DHT22;7621;52.350;13.308;2022-11-20T22:08:35;-1.40;99.90
15048;DHT22;7621;52.350;13.308;2022-11-20T22:11:03;-1.40;99.90
15048;DHT22;7621;52.350;13.308;2022-11-20T22:13:29;-1.50;99.90
15048;DHT22;7621;52.350;13.308;2022-11-20T22:16:14;-1.50;99.90
15048;DHT22;7621;52.350;13.308;2022-11-20T22:18:44;-1.60;99.90
15048;DHT22;7621;52.350;13.308;2022-11-20T22:21:11;-1.60;99.90
15048;DHT22;7621;52.350;13.308;2022-11-20T22:23:37;-1.60;99.90
15048;DHT22;7621;52.350;13.308;2022-11-20T22:26:08;-1.60;99.90
